Upcoming* NOVA Improvements: Earlier this summer, the Minnesota Public Utilities Commission approved revised templates for the Simplified and Standard Interconnection Applications. While these templates are not required and do not change the MN DIP, NOVA Power Portal is being updated to align with these templates by clarifying application questions and simplifying input data fields, which includes removing current redundant inputs. For more information and to view copies of the revised templates, visit the MN PUC web site: mn.gov/puc/activities/economic-analysis/distributed-energy/interconnections/
*These NOVA Power Portal updates will be implemented by the end of 2021.

Distributed Energy Resource Document Library

Browse interconnection resource documents or download a PDF application.

Current Application Queue

APP ID Queue # Qualify Date Process Status DER Type and Size Sub - Fdr - Phs
APP4160 1 2/16/2021 12:09:52 PM Simplified Interconnected Solar Photovoltaic 7.60 kW 9 - 912 - A
APP4158 2 2/16/2021 3:21:54 PM Simplified Interconnected Solar Photovoltaic 3.00 kW 4 - 405 - B
APP4176 3 2/17/2021 11:00:32 AM Simplified Interconnected Solar Photovoltaic 3.80 kW 3 - 305 - A
APP4163 4 2/17/2021 11:21:31 AM Simplified Interconnected Solar Photovoltaic 10.00 kW 13 - 1311 - B
APP4178 5 2/17/2021 2:48:52 PM Simplified Interconnected Solar Photovoltaic 10.00 kW 8 - 812 - B
APP4182 6 2/17/2021 4:03:05 PM Simplified DER Installation and Interconnection Solar Photovoltaic 6.00 kW 4 - 401 - A
APP4186 7 2/18/2021 4:29:03 PM Simplified Interconnected Solar Photovoltaic 7.60 kW 13 - 1303 - A
APP4194 8 2/19/2021 4:36:20 PM Simplified Interconnected Solar Photovoltaic 5.00 kW 4 - 403 - C
APP4192 9 2/22/2021 11:05:10 AM Simplified Interconnected Solar Photovoltaic 7.60 kW 16 - 1601 - A
APP4202 10 2/22/2021 1:54:06 PM Simplified Interconnected Solar Photovoltaic 10.00 kW 8 - 812 - B
APP4180 11 2/25/2021 7:35:00 AM Simplified Interconnected Solar Photovoltaic 11.40 kW 9 - 911 - B
APP4177 12 3/1/2021 3:34:30 PM Simplified Interconnected Solar Photovoltaic 5.00 kW 8 - 813 - B
APP4234 13 3/1/2021 3:47:45 PM Simplified Interconnected Solar Photovoltaic 7.60 kW 8 - 812 - C
APP4341 14 3/22/2021 2:05:01 PM Simplified Final Accounting Solar Photovoltaic 5.48 kW 13 - 1303 - C
APP4346 15 3/22/2021 2:54:01 PM Simplified Interconnected Solar Photovoltaic 4.93 kW 13 - 1311 - B
APP4347 16 3/22/2021 3:51:50 PM Simplified Interconnected Solar Photovoltaic 3.84 kW 13 - 1311 - C
APP4344 17 3/23/2021 9:31:45 AM Simplified Interconnected Solar Photovoltaic 5.48 kW 13 - 1301 - C
APP4340 18 3/23/2021 4:30:10 PM Simplified Interconnected Solar Photovoltaic 5.48 kW 13 - 1303 - C
APP4343 19 3/23/2021 5:24:24 PM Simplified Interconnected Solar Photovoltaic 4.38 kW 13 - 1303 - C
APP4366 20 3/25/2021 2:38:57 PM Simplified Interconnected Solar Photovoltaic 11.40 kW 6 - 613 - B
APP4364 21 3/26/2021 3:58:09 PM Simplified Interconnected Solar Photovoltaic 10.00 kW 8 - 812 - B
APP4348 22 3/26/2021 6:23:25 PM Simplified Interconnected Solar Photovoltaic 4.38 kW - Fake - A
APP4339 23 3/29/2021 5:39:12 PM Simplified Interconnected Solar Photovoltaic 6.03 kW 17 - 1731 - A
APP4413 24 4/8/2021 1:18:34 PM Simplified Interconnected Solar Photovoltaic 7.60 kW 8 - 804 - B
APP4357 25 4/14/2021 8:15:02 AM Simplified Interconnected Solar Photovoltaic 5.48 kW 17 - 1731 - A
APP4350 26 4/14/2021 9:06:17 AM Simplified Inspection and Testing Solar Photovoltaic 3.29 kW 13 - 1311 - A
APP4349 27 4/16/2021 4:18:05 PM Simplified Interconnected Solar Photovoltaic 4.38 kW 13 - 1301 - B
APP4394 28 4/18/2021 10:31:29 AM Simplified Interconnected Solar Photovoltaic 7.60 kW 13 - 1301 - B
APP4449 29 4/20/2021 9:29:51 PM Simplified Pending Contract (Utility) Solar Photovoltaic 5.00 kW 4 - 405 - B
APP4471 30 4/23/2021 12:37:21 PM Simplified Interconnected Solar Photovoltaic 6.00 kW 9 - 911 - B
APP4469 31 4/29/2021 9:13:31 PM Simplified DER Installation and Interconnection Solar Photovoltaic 12.00 kW 9 - 911 - C
APP4519 32 5/4/2021 5:44:27 PM Simplified Interconnected Solar Photovoltaic 10.60 kW 13 - 1301 - A
APP4558 33 5/13/2021 6:26:57 AM Simplified Interconnected Solar Photovoltaic 11.40 kW 9 - 911 - C
APP4567 34 5/15/2021 8:01:27 AM Simplified Interconnected Solar Photovoltaic 7.60 kW 3 - 304 - B
APP4568 35 5/18/2021 10:29:15 AM Simplified Interconnected Solar Photovoltaic 11.40 kW 3 - 304 - B
APP4576 36 5/18/2021 1:51:24 PM Simplified DER Installation and Interconnection Solar Photovoltaic 6.98 kW 13 - 1301 - C
APP4575 37 5/18/2021 7:46:37 PM Simplified Interconnected Solar Photovoltaic 7.60 kW 3 - 304 - B
APP4577 38 5/27/2021 9:22:23 AM Simplified DER Installation and Interconnection Solar Photovoltaic 7.79 kW 6 - 605 - B
APP4634 39 6/1/2021 9:22:42 PM Simplified Interconnected Solar Photovoltaic 9.00 kW - Fake - A
APP4639 40 6/10/2021 3:13:03 AM Simplified Facilities Construction Solar Photovoltaic 6.99 kW 8 - 812 - B
APP4690 41 6/15/2021 2:07:48 PM Simplified Interconnected Solar Photovoltaic 13.60 kW 13 - 1301 - A
APP4689 42 6/15/2021 9:05:43 PM Simplified Interconnected Solar Photovoltaic 6.00 kW 9 - 912 - C
APP4731 43 6/24/2021 4:29:09 PM Simplified DER Installation and Interconnection Solar Photovoltaic 2.90 kW 8 - 812 - A
APP4610 44 6/25/2021 11:18:01 AM Simplified Interconnected Solar Photovoltaic 9.80 kW 9 - 912 - C
APP4768 45 7/6/2021 12:48:51 PM Simplified Interconnected Solar Photovoltaic 10.00 kW 9 - 911 - C
APP4803 46 7/13/2021 1:50:40 PM Simplified Final Accounting Solar Photovoltaic 9.86 kW 16 - 1603 - C
APP4702 47 7/16/2021 10:48:54 AM Simplified Pending Customer Options Meeting Solar Photovoltaic 4.08 kW 8 - 812 - B
APP4829 48 7/19/2021 10:32:38 AM Simplified Pending Contract (Customer) Solar Photovoltaic 10.00 kW 9 - 905 - B
APP4833 49 7/19/2021 3:31:31 PM Simplified DER Installation and Interconnection Solar Photovoltaic 4.53 kW 4 - 405 - C
APP4848 50 7/22/2021 12:19:42 PM Simplified DER Installation and Interconnection Solar Photovoltaic 11.51 kW 13 - 1303 - C
APP4861 51 7/27/2021 2:24:31 PM Simplified Interconnected Solar Photovoltaic 10.00 kW 13 - 1302 - C
APP4871 52 7/29/2021 4:51:11 PM Simplified DER Installation and Interconnection Solar Photovoltaic 7.60 kW 8 - 804 - A
APP4870 53 7/29/2021 5:09:07 PM Simplified Pending Approval to Operate Solar Photovoltaic 10.00 kW 13 - 1302 - C
APP4893 54 8/4/2021 4:13:07 PM Simplified Facilities Construction Solar Photovoltaic 13.60 kW 9 - 905 - C
APP4607 55 8/9/2021 11:04:27 AM Simplified Pending Initial Review Solar Photovoltaic 10.00 kW - -
APP4906 56 8/9/2021 4:59:00 PM Simplified Pending Initial Review Solar Photovoltaic 5.00 kW - -
APP4900 57 8/10/2021 11:27:23 AM Simplified Facilities Construction Solar Photovoltaic 3.77 kW 9 - 905 - C
APP4868 58 8/17/2021 9:39:03 AM Simplified DER Installation and Interconnection Solar Photovoltaic 6.96 kW 3 - 304 - C
APP4926 59 8/17/2021 3:58:12 PM Simplified Facilities Construction Solar Photovoltaic 10.00 kW 9 - 904 - C
APP4874 60 8/29/2021 7:31:46 PM Simplified Facilities Construction Solar Photovoltaic 6.38 kW 3 - 305 - A
APP5028 61 8/31/2021 2:19:16 PM Simplified Facilities Construction Solar Photovoltaic 5.49 kW 9 - 905 - A
APP4943 62 8/31/2021 2:49:41 PM Simplified Pending Initial Review Solar Photovoltaic 5.62 kW - -
APP4919 63 9/7/2021 12:41:12 PM Simplified Pending Initial Review Solar Photovoltaic 4.16 kW - -
APP5093 64 9/20/2021 8:36:17 PM Fast Track Pending Initial Review Solar Photovoltaic 22.80 kW - -

 

 

  © 2021 - Application developed and maintained by STAR Energy Services LLC